Time;durP1;ratioP1;P1;durP2;ratioP2;P2;SDS_P1;SDS_P2;PMS_P1;PMS_P2;Temp;Humidity;BMP_temperature;BMP_pressure;BME280_temperature;BME280_humidity;BME280_pressure;Samples;Min_cycle;Max_cycle;Signal;HPM_P1;HPM_P2
2022/12/23 00:03:12;;;;;;;5.63;2.70;;;;;;;11.74;60.04;98653.06;10352735;28;20229;-43
2022/12/23 00:08:22;;;;;;;3.30;2.07;;;;;;;9.13;65.40;98712.56;10352353;28;20261;-41
2022/12/23 00:18:59;;;;;;;5.50;2.40;;;;;;;11.41;60.51;98667.53;10358956;28;20236;-41
2022/12/23 00:24:07;;;;;;;5.00;2.23;;;;;;;11.17;58.58;98629.78;10360797;28;20233;-39
2022/12/23 00:29:15;;;;;;;3.57;2.30;;;;;;;10.68;60.52;98666.03;10359854;28;20221;-40
2022/12/23 00:34:23;;;;;;;5.80;2.10;;;;;;;11.03;61.75;98700.50;10356619;28;20241;-41
2022/12/23 00:45:16;;;;;;;2.20;2.00;;;;;;;10.29;63.05;98718.63;10361463;28;20237;-40
2022/12/23 00:50:24;;;;;;;3.20;2.10;;;;;;;12.93;57.35;98728.78;10345923;28;20240;-42
2022/12/23 00:55:32;;;;;;;2.73;2.07;;;;;;;11.09;59.85;98678.22;10362868;28;20714;-42
2022/12/23 01:06:07;;;;;;;2.73;2.20;;;;;;;11.86;60.06;98698.72;10359597;28;20240;-39
2022/12/23 01:11:15;;;;;;;4.17;1.90;;;;;;;12.05;59.52;98695.06;10354303;28;20319;-42
2022/12/23 01:16:23;;;;;;;3.93;1.90;;;;;;;12.26;58.57;98701.03;10357771;28;20312;-41
2022/12/23 01:21:31;;;;;;;3.43;2.03;;;;;;;11.89;59.72;98715.19;10356694;28;20291;-41
2022/12/23 01:26:40;;;;;;;2.07;1.87;;;;;;;13.41;56.40;98759.44;10359568;28;20619;-39
2022/12/23 01:31:48;;;;;;;2.83;2.10;;;;;;;13.89;55.76;98776.50;10355975;28;20235;-40
2022/12/23 01:36:56;;;;;;;1.63;1.53;;;;;;;12.05;59.60;98732.59;10357995;28;20307;-39
2022/12/23 01:48:08;;;;;;;2.33;1.97;;;;;;;12.88;57.95;98738.59;10355747;28;20245;-41
2022/12/23 01:53:36;;;;;;;2.33;2.23;;;;;;;11.81;60.30;98799.38;10356048;28;20707;-38
2022/12/23 01:58:56;;;;;;;1.93;1.80;;;;;;;12.20;59.51;98756.41;10353459;28;20233;-38
2022/12/23 02:04:08;;;;;;;4.43;2.00;;;;;;;13.24;57.78;98774.47;10353833;28;20248;-40
2022/12/23 02:09:39;;;;;;;1.93;1.67;;;;;;;12.92;58.75;98772.81;10354549;28;20817;-41
2022/12/23 02:20:59;;;;;;;2.07;1.80;;;;;;;13.25;57.81;98787.69;10352366;28;20259;-41
2022/12/23 02:26:45;;;;;;;1.93;1.83;;;;;;;14.88;55.36;98836.97;10342147;28;20292;-40
2022/12/23 02:32:04;;;;;;;2.73;1.70;;;;;;;14.27;54.86;98740.28;10354709;28;20233;-41
2022/12/23 02:37:40;;;;;;;2.10;1.90;;;;;;;14.77;54.48;98773.97;10358092;28;20608;-39
2022/12/23 02:43:08;;;;;;;2.93;1.70;;;;;;;14.42;55.99;98809.78;10354216;28;20225;-38
2022/12/23 02:48:29;;;;;;;1.93;1.80;;;;;;;12.25;61.02;98846.91;10354376;28;20391;-38
2022/12/23 02:53:45;;;;;;;1.60;1.50;;;;;;;12.72;60.27;98815.16;10352393;28;20261;-38
2022/12/23 02:58:58;;;;;;;2.40;1.80;;;;;;;12.80;59.82;98819.41;10353270;28;20291;-38
2022/12/23 03:04:07;;;;;;;2.10;1.90;;;;;;;12.90;59.98;98828.59;10352450;28;20236;-38
2022/12/23 03:09:30;;;;;;;3.93;1.87;;;;;;;13.63;58.43;98818.88;10353099;28;20226;-38
2022/12/23 03:15:00;;;;;;;2.40;2.20;;;;;;;12.35;59.07;98799.78;10352866;28;20235;-38
2022/12/23 03:20:49;;;;;;;2.17;1.97;;;;;;;13.40;58.74;98805.31;10352721;28;20229;-38
2022/12/23 03:26:11;;;;;;;2.37;1.80;;;;;;;14.09;57.83;98824.63;10334104;28;20229;-38
2022/12/23 03:31:25;;;;;;;1.93;1.77;;;;;;;12.28;60.57;98816.97;10351393;28;20253;-38
2022/12/23 03:36:41;;;;;;;2.23;2.03;;;;;;;14.41;56.14;98802.78;10340795;28;20222;-39
2022/12/23 03:41:55;;;;;;;2.07;1.87;;;;;;;15.09;54.27;98839.03;10352134;28;20229;-39
2022/12/23 03:47:19;;;;;;;1.87;1.77;;;;;;;13.90;57.11;98839.97;10362913;28;20950;-39
2022/12/23 03:52:34;;;;;;;1.50;1.40;;;;;;;13.04;59.10;98847.25;10362120;28;20237;-38
2022/12/23 03:58:01;;;;;;;1.90;1.80;;;;;;;14.53;55.40;98819.75;10348069;28;20225;-40
2022/12/23 04:03:24;;;;;;;2.47;1.70;;;;;;;14.79;55.54;98852.63;10357821;28;20331;-38
2022/12/23 04:08:36;;;;;;;2.00;1.90;;;;;;;16.04;53.14;98877.31;10359638;28;20233;-39
2022/12/23 04:13:46;;;;;;;1.73;1.63;;;;;;;15.27;53.85;98829.19;10358674;28;20222;-39
2022/12/23 04:18:55;;;;;;;2.33;2.13;;;;;;;16.17;52.39;98884.28;10356684;28;20633;-39
2022/12/23 04:24:03;;;;;;;3.23;2.00;;;;;;;15.52;52.88;98866.59;10363187;28;20255;-39
2022/12/23 04:29:12;;;;;;;2.17;2.07;;;;;;;15.99;52.32;98885.34;10340845;28;20229;-39
2022/12/23 04:34:20;;;;;;;3.10;2.23;;;;;;;14.91;54.27;98850.81;10358458;28;20707;-39
2022/12/23 04:39:28;;;;;;;2.07;1.87;;;;;;;15.30;53.26;98829.53;10355790;28;20229;-39
2022/12/23 04:44:36;;;;;;;2.20;2.00;;;;;;;15.18;53.34;98836.00;10356198;28;20240;-39
2022/12/23 04:49:44;;;;;;;2.07;1.97;;;;;;;16.13;51.41;98880.44;10355370;28;20245;-39
2022/12/23 04:54:52;;;;;;;3.07;2.10;;;;;;;15.48;52.95;98858.16;10361242;28;20222;-39
2022/12/23 05:00:00;;;;;;;3.83;2.00;;;;;;;16.68;50.65;98895.13;10354326;28;20666;-38
2022/12/23 05:05:08;;;;;;;2.40;2.00;;;;;;;16.62;50.31;98874.53;10353288;28;20225;-39
2022/12/23 05:10:16;;;;;;;1.90;1.80;;;;;;;17.75;48.71;98878.75;10354400;28;20805;-39
2022/12/23 05:15:24;;;;;;;2.97;1.90;;;;;;;15.29;51.74;98778.56;10359570;28;20221;-39
2022/12/23 05:20:32;;;;;;;2.00;1.90;;;;;;;16.73;50.23;98829.56;10354042;28;20255;-39
2022/12/23 05:25:40;;;;;;;1.90;1.80;;;;;;;17.40;48.59;98823.16;10352122;28;20233;-39
2022/12/23 05:30:48;;;;;;;2.60;1.90;;;;;;;17.15;49.18;98808.25;10345812;28;20222;-38
2022/12/23 05:35:57;;;;;;;1.90;1.80;;;;;;;16.85;50.22;98842.97;10348664;28;20596;-39
2022/12/23 05:41:06;;;;;;;2.10;2.00;;;;;;;15.89;52.25;98860.84;10350860;28;20436;-39
2022/12/23 05:46:13;;;;;;;1.50;1.50;;;;;;;14.47;54.94;98825.25;10342344;28;20299;-39
2022/12/23 05:51:27;;;;;;;3.20;1.90;;;;;;;14.59;55.19;98820.69;10354657;28;20229;-39
2022/12/23 05:56:35;;;;;;;1.87;1.77;;;;;;;16.39;52.20;98786.41;10354296;28;20244;-39
2022/12/23 06:01:43;;;;;;;1.90;1.80;;;;;;;16.86;50.42;98785.16;10353353;28;20249;-39
2022/12/23 06:07:05;;;;;;;5.80;2.03;;;;;;;14.91;53.75;98814.94;10349248;28;20862;-39
2022/12/23 06:12:13;;;;;;;2.70;1.93;;;;;;;15.16;53.75;98809.28;10354081;28;20221;-39
2022/12/23 06:17:21;;;;;;;2.23;2.07;;;;;;;16.10;51.53;98772.97;10354755;28;20287;-39
2022/12/23 06:22:30;;;;;;;2.20;1.93;;;;;;;14.06;55.64;98759.69;10353938;28;20229;-40
2022/12/23 06:27:39;;;;;;;1.90;1.80;;;;;;;14.78;54.80;98819.50;10355293;28;20269;-42
2022/12/23 06:32:46;;;;;;;4.33;2.50;;;;;;;15.45;53.38;98785.88;10356566;28;20229;-40
2022/12/23 06:37:54;;;;;;;2.00;1.80;;;;;;;14.20;55.49;98790.72;10355217;28;20311;-41
2022/12/23 06:43:02;;;;;;;2.07;1.97;;;;;;;13.90;56.98;98826.53;10340389;28;20244;-42
2022/12/23 06:48:10;;;;;;;3.00;1.67;;;;;;;14.64;55.22;98831.56;10348989;28;20229;-42
2022/12/23 06:53:18;;;;;;;3.57;1.80;;;;;;;16.36;51.39;98792.28;10338427;28;20232;-40
2022/12/23 06:58:26;;;;;;;2.80;2.00;;;;;;;15.11;53.02;98787.63;10349659;28;20233;-39
2022/12/23 07:03:35;;;;;;;2.50;1.87;;;;;;;15.33;52.64;98842.53;10353968;28;20228;-39
2022/12/23 07:08:42;;;;;;;2.00;1.90;;;;;;;14.93;53.07;98843.31;10352368;28;20226;-42
2022/12/23 07:13:50;;;;;;;2.17;1.70;;;;;;;14.17;54.78;98853.88;10354937;28;20758;-41
2022/12/23 07:18:58;;;;;;;3.97;2.10;;;;;;;13.39;56.62;98827.84;10353204;28;20221;-39
2022/12/23 07:24:07;;;;;;;2.60;2.00;;;;;;;13.04;58.11;98883.00;10360991;28;20237;-41
2022/12/23 07:29:15;;;;;;;2.13;1.90;;;;;;;13.75;56.46;98861.91;10358040;28;20315;-44
2022/12/23 07:34:23;;;;;;;2.40;2.20;;;;;;;13.24;57.67;98872.00;10360001;28;20217;-41
2022/12/23 07:39:32;;;;;;;3.00;1.90;;;;;;;13.52;57.66;98896.75;10358162;28;20218;-42
2022/12/23 07:44:40;;;;;;;2.20;2.00;;;;;;;14.09;56.37;98862.28;10357201;28;20229;-41
2022/12/23 07:49:48;;;;;;;3.33;2.37;;;;;;;14.16;56.29;98851.44;10352541;28;20321;-43
2022/12/23 07:54:56;;;;;;;3.07;2.37;;;;;;;13.88;57.38;98879.72;10363145;28;20656;-39
2022/12/23 08:00:09;;;;;;;2.07;1.97;;;;;;;14.48;54.75;98843.06;10365497;28;20244;-39
2022/12/23 08:05:24;;;;;;;1.87;1.70;;;;;;;12.83;59.44;98878.03;10359168;28;20568;-40
2022/12/23 08:10:32;;;;;;;4.97;2.40;;;;;;;13.39;58.95;98889.66;10367774;28;20543;-40
2022/12/23 08:15:54;;;;;;;3.37;2.30;;;;;;;15.14;54.55;98844.53;10350617;28;20237;-39
2022/12/23 08:21:06;;;;;;;2.50;2.30;;;;;;;14.02;55.80;98834.66;10363546;28;20676;-38
2022/12/23 08:26:24;;;;;;;2.13;1.97;;;;;;;14.97;53.70;98813.22;10357065;28;20318;-40
2022/12/23 08:31:33;;;;;;;3.50;1.90;;;;;;;13.84;56.47;98882.06;10357708;28;20229;-43
2022/12/23 08:36:41;;;;;;;2.40;2.20;;;;;;;15.96;52.21;98860.69;10360888;28;20253;-42
2022/12/23 08:41:50;;;;;;;3.30;2.50;;;;;;;15.41;52.19;98818.94;10359116;28;20308;-45
2022/12/23 08:46:57;;;;;;;2.63;2.20;;;;;;;16.43;51.47;98846.94;10402217;22;20228;-37
2022/12/23 08:51:59;;;;;;;2.90;2.60;;;;;;;14.28;54.65;98844.19;10410469;28;20424;-37
2022/12/23 08:57:01;;;;;;;2.70;2.50;;;;;;;13.51;58.18;98903.97;10479020;28;20266;-37
2022/12/23 09:02:03;;;;;;;2.77;2.57;;;;;;;14.66;56.04;98844.78;10476390;28;20245;-37
2022/12/23 09:07:05;;;;;;;3.10;2.80;;;;;;;13.93;57.69;98871.78;10475770;28;20305;-37
2022/12/23 09:12:07;;;;;;;4.40;2.70;;;;;;;14.53;56.72;98818.94;10475647;28;20234;-37
2022/12/23 09:17:09;;;;;;;3.63;3.33;;;;;;;13.74;58.02;98846.00;10475574;28;20293;-36
2022/12/23 09:22:10;;;;;;;5.03;3.20;;;;;;;13.82;59.16;98826.88;10473888;28;20227;-36
2022/12/23 09:27:12;;;;;;;3.73;3.17;;;;;;;15.43;55.43;98789.84;10474634;28;20245;-37
2022/12/23 09:32:14;;;;;;;4.77;2.90;;;;;;;15.27;55.98;98786.06;10471150;28;20698;-37
2022/12/23 09:37:16;;;;;;;6.40;3.47;;;;;;;14.87;55.67;98787.69;10471591;28;20242;-37
2022/12/23 09:42:46;;;;;;;5.10;3.87;;;;;;;15.61;53.89;98786.19;10473703;28;20354;-37
2022/12/23 09:47:49;;;;;;;3.90;3.50;;;;;;;15.13;55.14;98828.59;10471541;28;20266;-36
2022/12/23 09:53:05;;;;;;;4.80;4.00;;;;;;;14.90;54.77;98795.28;10474850;28;20237;-36
2022/12/23 09:58:26;;;;;;;3.87;3.17;;;;;;;15.80;53.50;98802.97;10473173;28;20670;-37
2022/12/23 10:04:08;;;;;;;4.00;3.60;;;;;;;16.16;52.94;98808.94;10471531;28;20235;-37
2022/12/23 10:09:13;;;;;;;3.50;3.20;;;;;;;15.88;52.92;98775.59;10472799;28;20680;-37
2022/12/23 10:14:24;;;;;;;2.97;2.37;;;;;;;15.36;54.78;98744.19;10466423;28;20243;-36
2022/12/23 10:19:40;;;;;;;2.77;2.57;;;;;;;16.76;52.78;98750.72;10474689;28;20326;-37
2022/12/23 10:24:44;;;;;;;3.30;2.70;;;;;;;15.46;54.78;98746.25;10470425;28;20795;-37
2022/12/23 10:29:46;;;;;;;2.53;2.33;;;;;;;13.61;59.50;98777.13;10472189;28;20269;-37
2022/12/23 10:35:10;;;;;;;3.13;2.83;;;;;;;16.44;53.42;98710.88;10468909;28;20227;-36
2022/12/23 10:40:22;;;;;;;3.03;2.53;;;;;;;16.10;53.80;98708.22;10471879;28;20231;-37
2022/12/23 10:45:50;;;;;;;2.40;2.20;;;;;;;15.82;54.87;98665.97;10471853;28;20243;-36
2022/12/23 10:51:02;;;;;;;2.90;2.40;;;;;;;14.74;57.49;98759.09;10452777;28;20227;-36
2022/12/23 10:56:06;;;;;;;3.27;2.50;;;;;;;14.30;58.63;98787.44;10472241;28;20815;-36
2022/12/23 11:06:20;;;;;;;2.00;1.90;;;;;;;11.53;66.17;98785.53;10442692;28;20803;-65
2022/12/23 11:11:22;;;;;;;2.70;2.03;;;;;;;14.20;60.48;98691.97;10402432;28;20247;-65
2022/12/23 11:16:26;;;;;;;2.17;1.70;;;;;;;12.43;64.90;98753.06;10397082;28;20319;-64
2022/12/23 11:21:29;;;;;;;1.80;1.70;;;;;;;13.32;62.29;98682.06;10404487;28;20660;-63
2022/12/23 11:26:31;;;;;;;2.10;1.83;;;;;;;14.57;58.51;98621.69;10407135;28;20242;-64
2022/12/23 11:31:34;;;;;;;2.10;2.00;;;;;;;14.93;57.92;98651.22;10398201;28;20235;-63
2022/12/23 11:36:37;;;;;;;2.00;1.80;;;;;;;13.72;60.95;98652.69;10403279;28;20307;-63
2022/12/23 11:41:43;;;;;;;1.90;1.80;;;;;;;15.28;56.68;98648.34;10404563;28;20290;-65
2022/12/23 11:46:45;;;;;;;2.67;1.93;;;;;;;13.57;60.63;98661.19;10401299;28;20233;-64
2022/12/23 11:51:59;;;;;;;2.00;1.90;;;;;;;13.78;60.57;98626.72;10408782;28;20840;-64
2022/12/23 11:57:04;;;;;;;2.47;2.20;;;;;;;13.82;59.91;98615.28;10409310;28;20235;-63
2022/12/23 12:02:14;;;;;;;3.20;2.90;;;;;;;14.68;59.01;98603.09;10403308;28;20323;-64
2022/12/23 12:07:18;;;;;;;3.27;2.50;;;;;;;15.31;58.39;98587.78;10400480;28;20232;-64
2022/12/23 12:12:20;;;;;;;2.93;2.60;;;;;;;14.53;59.81;98571.31;10401378;28;20997;-63
2022/12/23 12:17:45;;;;;;;18.73;13.97;;;;;;;13.98;60.95;98596.78;10372677;23;20229;-38
2022/12/23 12:22:54;;;;;;;2.60;2.40;;;;;;;14.51;61.02;98566.16;10356962;28;20316;-38
2022/12/23 12:28:01;;;;;;;4.73;3.23;;;;;;;13.76;61.07;98548.97;10315090;28;20237;-37
2022/12/23 12:33:12;;;;;;;4.47;2.80;;;;;;;15.21;58.24;98545.31;10316331;28;20240;-37
2022/12/23 12:38:20;;;;;;;3.43;3.13;;;;;;;13.98;61.19;98565.31;10311437;28;20241;-37
2022/12/23 12:43:30;;;;;;;3.50;3.20;;;;;;;14.95;58.91;98515.25;10313986;28;20253;-37
2022/12/23 12:48:55;;;;;;;2.90;2.60;;;;;;;14.82;60.10;98518.28;10310527;28;20241;-37
2022/12/23 12:54:28;;;;;;;2.63;2.40;;;;;;;14.28;61.43;98523.19;10310723;28;20245;-37
2022/12/23 12:59:39;;;;;;;2.70;2.50;;;;;;;13.39;63.20;98569.91;10313765;28;20618;-37
2022/12/23 13:04:55;;;;;;;2.93;2.20;;;;;;;14.51;60.08;98522.25;10312577;28;20989;-37
2022/12/23 13:10:09;;;;;;;2.60;2.40;;;;;;;15.46;57.83;98531.41;10307229;28;20245;-39
2022/12/23 13:15:17;;;;;;;4.87;2.60;;;;;;;15.03;58.97;98527.53;10310001;28;20604;-37
2022/12/23 13:20:36;;;;;;;1.77;1.67;;;;;;;12.34;65.11;98555.91;10316046;28;20250;-38
2022/12/23 13:26:07;;;;;;;2.50;2.30;;;;;;;12.88;62.71;98516.56;10306022;28;20253;-37
2022/12/23 13:31:30;;;;;;;2.10;1.90;;;;;;;13.14;63.35;98530.59;10280509;28;20751;-37
2022/12/23 13:36:53;;;;;;;2.73;2.30;;;;;;;15.45;58.72;98520.88;10325622;28;20238;-37
2022/12/23 13:41:57;;;;;;;1.83;1.73;;;;;;;13.23;64.26;98542.66;10307831;28;20237;-37
2022/12/23 13:47:28;;;;;;;5.23;3.23;;;;;;;14.58;60.36;98467.22;10313430;28;20922;-37
2022/12/23 13:52:35;;;;;;;3.83;2.30;;;;;;;15.08;59.29;98491.75;10308874;28;20244;-37
2022/12/23 13:57:40;;;;;;;2.43;1.80;;;;;;;15.29;59.51;98506.34;10308248;28;20245;-37
2022/12/23 14:03:04;;;;;;;2.70;2.37;;;;;;;13.62;61.93;98491.16;10308446;28;20342;-37
2022/12/23 14:08:18;;;;;;;2.50;2.30;;;;;;;14.27;60.57;98449.69;10309664;28;20261;-37
2022/12/23 14:13:23;;;;;;;2.87;2.10;;;;;;;14.02;61.88;98469.66;10308491;28;20361;-37
2022/12/23 14:18:55;;;;;;;2.03;1.83;;;;;;;14.41;61.72;98469.06;10303437;28;20732;-37
2022/12/23 14:24:33;;;;;;;2.30;2.20;;;;;;;14.66;60.69;98484.84;10308509;28;20238;-35
2022/12/23 14:30:06;;;;;;;3.10;2.20;;;;;;;14.06;62.87;98507.69;10308355;28;20242;-35
2022/12/23 14:35:20;;;;;;;2.60;2.20;;;;;;;13.95;61.71;98474.38;10312752;28;20321;-35
2022/12/23 14:40:36;;;;;;;2.90;2.60;;;;;;;14.74;59.61;98470.97;10304405;28;20253;-35
2022/12/23 14:45:42;;;;;;;2.00;1.90;;;;;;;15.50;58.38;98520.94;10309842;28;20245;-35
2022/12/23 14:50:56;;;;;;;2.00;1.87;;;;;;;14.42;60.52;98526.41;10305417;28;20242;-35
2022/12/23 14:56:06;;;;;;;1.53;1.43;;;;;;;14.62;60.56;98532.16;10302232;28;20724;-35
2022/12/23 15:01:12;;;;;;;2.20;2.00;;;;;;;15.19;59.64;98523.19;10305489;28;21316;-35
2022/12/23 15:06:31;;;;;;;1.63;1.53;;;;;;;14.78;60.11;98541.34;10304865;28;20246;-35
2022/12/23 15:11:35;;;;;;;2.50;1.83;;;;;;;15.16;58.79;98520.97;10311367;28;20237;-35
2022/12/23 15:16:39;;;;;;;3.33;2.20;;;;;;;15.83;57.35;98541.66;10306329;28;20237;-35
2022/12/23 15:21:40;;;;;;;1.97;1.80;;;;;;;15.37;57.68;98497.84;10306277;28;20234;-36
2022/12/23 15:26:53;;;;;;;2.10;1.90;;;;;;;14.40;59.89;98575.88;10307786;28;20226;-35
2022/12/23 15:32:16;;;;;;;2.33;2.13;;;;;;;15.26;57.51;98509.53;10306352;28;20233;-36
2022/12/23 15:37:24;;;;;;;1.73;1.63;;;;;;;14.52;58.96;98562.38;10303100;28;20236;-36
2022/12/23 15:42:38;;;;;;;2.23;2.07;;;;;;;16.30;55.01;98553.03;10302234;28;20240;-35
2022/12/23 15:47:41;;;;;;;1.90;1.80;;;;;;;16.25;55.46;98556.47;10302893;28;20296;-35
2022/12/23 15:52:46;;;;;;;2.23;1.80;;;;;;;16.06;55.10;98553.25;10313048;28;20268;-35
2022/12/23 15:57:49;;;;;;;1.80;1.70;;;;;;;15.87;55.38;98547.38;10314543;28;20237;-36
2022/12/23 16:02:53;;;;;;;2.30;2.10;;;;;;;15.67;55.54;98564.06;10318091;28;20230;-35
2022/12/23 16:08:17;;;;;;;1.90;1.80;;;;;;;15.73;55.71;98562.28;10314157;28;20238;-35
2022/12/23 16:13:27;;;;;;;1.60;1.50;;;;;;;16.62;54.89;98599.84;10315301;28;20704;-35
2022/12/23 16:18:31;;;;;;;2.50;1.60;;;;;;;14.96;57.82;98621.13;10312749;28;20239;-36
2022/12/23 16:23:35;;;;;;;1.80;1.50;;;;;;;15.70;55.68;98587.84;10311648;28;20321;-35
2022/12/23 16:28:41;;;;;;;2.17;1.40;;;;;;;14.44;57.17;98567.34;10312177;28;20230;-35
2022/12/23 16:33:52;;;;;;;1.73;1.57;;;;;;;16.09;54.63;98587.84;10314320;28;20298;-35
2022/12/23 16:39:06;;;;;;;1.60;1.50;;;;;;;16.12;54.23;98576.56;10315633;28;20241;-36
2022/12/23 16:44:08;;;;;;;1.93;1.50;;;;;;;15.30;57.00;98613.91;10313093;28;20273;-35
2022/12/23 16:49:17;;;;;;;2.43;1.63;;;;;;;15.82;56.41;98598.53;10311849;28;20238;-36
2022/12/23 16:54:19;;;;;;;2.33;1.30;;;;;;;15.84;56.71;98608.03;10313155;28;20240;-35
2022/12/23 16:59:23;;;;;;;1.83;1.73;;;;;;;15.73;57.04;98600.84;10315001;28;20352;-35
2022/12/23 17:04:25;;;;;;;2.53;2.10;;;;;;;15.19;58.61;98620.19;10313987;28;20318;-35
2022/12/23 17:09:27;;;;;;;5.60;2.20;;;;;;;15.54;57.69;98608.34;10312423;28;20256;-35
2022/12/23 17:14:28;;;;;;;1.97;1.60;;;;;;;14.10;59.70;98643.34;10315030;28;20233;-35
2022/12/23 17:19:31;;;;;;;2.43;1.77;;;;;;;14.45;57.78;98585.94;10318389;28;20344;-35
2022/12/23 17:24:33;;;;;;;3.67;2.57;;;;;;;14.27;59.59;98627.28;10312326;28;20372;-34
2022/12/23 17:29:35;;;;;;;2.33;2.13;;;;;;;15.43;55.89;98555.34;10312825;28;20320;-35
2022/12/23 17:34:37;;;;;;;2.70;1.93;;;;;;;16.74;54.23;98631.31;10311896;28;20332;-38
2022/12/23 17:39:39;;;;;;;2.17;1.97;;;;;;;16.74;53.32;98621.31;10308638;28;20332;-35
2022/12/23 17:44:42;;;;;;;1.70;1.60;;;;;;;16.22;54.18;98611.75;10314964;28;20230;-36
2022/12/23 17:49:45;;;;;;;1.40;1.30;;;;;;;14.98;56.26;98669.38;10307883;28;20311;-36
2022/12/23 17:54:48;;;;;;;2.03;1.83;;;;;;;16.03;54.13;98659.00;10312254;28;20774;-35
2022/12/23 17:59:51;;;;;;;2.27;2.00;;;;;;;16.44;52.84;98665.78;10287483;28;20310;-35
2022/12/23 18:04:53;;;;;;;1.80;1.70;;;;;;;15.90;54.54;98686.34;10309953;28;20247;-35
2022/12/23 18:09:55;;;;;;;2.33;1.83;;;;;;;15.95;54.35;98694.50;10312374;28;20230;-35
2022/12/23 18:14:57;;;;;;;3.90;2.77;;;;;;;16.05;53.74;98675.75;10311629;28;20781;-36
2022/12/23 18:19:58;;;;;;;6.23;2.87;;;;;;;16.22;53.71;98679.25;10311397;28;20236;-36
2022/12/23 18:25:00;;;;;;;3.60;2.70;;;;;;;16.73;52.75;98679.09;10311025;28;20245;-36
2022/12/23 18:30:02;;;;;;;5.00;3.00;;;;;;;16.87;52.66;98666.03;10366177;23;20239;-40
2022/12/23 18:35:31;;;;;;;5.60;3.50;;;;;;;16.89;51.84;98641.47;10367871;28;20335;-43
2022/12/23 18:40:33;;;;;;;2.40;2.20;;;;;;;17.10;51.31;98639.81;10374206;28;20240;-41
2022/12/23 18:45:44;;;;;;;3.43;2.00;;;;;;;16.83;52.02;98666.78;10365513;28;20250;-44
2022/12/23 18:50:53;;;;;;;2.03;1.80;;;;;;;17.22;51.68;98686.41;10359551;28;20271;-41
2022/12/23 18:55:54;;;;;;;1.60;1.50;;;;;;;16.39;53.74;98724.31;10363762;28;20615;-40
2022/12/23 19:00:56;;;;;;;4.00;1.93;;;;;;;17.26;51.91;98695.66;10359637;28;20304;-41
2022/12/23 19:06:05;;;;;;;2.73;1.63;;;;;;;17.30;52.51;98696.78;10319366;28;20259;-38
2022/12/23 19:11:19;;;;;;;1.83;1.73;;;;;;;16.47;53.27;98696.09;10373614;28;20310;-39
2022/12/23 19:16:21;;;;;;;2.00;1.90;;;;;;;16.36;53.26;98697.81;10357971;28;20236;-42
2022/12/23 19:21:23;;;;;;;5.67;2.47;;;;;;;17.76;50.73;98701.00;10361606;28;20236;-42
2022/12/23 19:26:24;;;;;;;2.20;2.00;;;;;;;16.32;53.44;98723.69;10363002;28;20240;-41
2022/12/23 19:31:28;;;;;;;1.70;1.60;;;;;;;16.57;52.61;98707.00;10367652;28;20240;-40
2022/12/23 19:36:30;;;;;;;1.80;1.70;;;;;;;16.97;51.77;98709.41;10365493;28;20726;-41
2022/12/23 19:41:32;;;;;;;1.77;1.60;;;;;;;15.45;53.51;98750.00;10371935;28;20697;-42
2022/12/23 19:46:33;;;;;;;2.27;2.00;;;;;;;16.99;50.93;98725.38;10364102;28;20723;-40
2022/12/23 19:51:35;;;;;;;2.30;2.00;;;;;;;16.84;51.31;98769.22;10373678;28;20237;-43
2022/12/23 19:56:37;;;;;;;2.73;1.60;;;;;;;15.66;53.07;98810.53;10366343;28;20245;-44
2022/12/23 20:01:39;;;;;;;2.10;1.80;;;;;;;16.55;51.01;98755.03;10367367;28;20263;-41
2022/12/23 20:06:41;;;;;;;2.03;1.83;;;;;;;17.32;50.15;98764.91;10357908;28;20307;-44
2022/12/23 20:11:46;;;;;;;4.23;3.07;;;;;;;16.39;51.19;98789.09;10370031;28;20244;-40
2022/12/23 20:16:48;;;;;;;1.60;1.50;;;;;;;16.11;51.73;98822.38;10361364;28;20268;-44
2022/12/23 20:21:50;;;;;;;2.00;1.53;;;;;;;16.79;51.02;98845.59;10366832;28;20225;-41
2022/12/23 20:26:52;;;;;;;4.87;1.80;;;;;;;15.89;51.47;98836.56;10367055;28;20237;-44
2022/12/23 20:31:54;;;;;;;1.77;1.60;;;;;;;15.46;52.23;98895.31;10365392;28;20248;-41
2022/12/23 20:36:56;;;;;;;2.60;1.80;;;;;;;16.66;50.49;98872.13;10370201;28;20344;-41
2022/12/23 20:41:57;;;;;;;2.93;1.90;;;;;;;16.10;50.99;98880.94;10368137;28;20236;-43
2022/12/23 20:46:59;;;;;;;3.23;1.83;;;;;;;15.98;51.35;98896.38;10363095;28;20241;-40
2022/12/23 20:52:01;;;;;;;4.47;1.90;;;;;;;17.30;49.03;98880.63;10368164;28;20237;-42
2022/12/23 20:57:03;;;;;;;3.47;1.80;;;;;;;16.59;49.68;98869.59;10362680;28;20232;-39
2022/12/23 21:02:05;;;;;;;3.87;1.90;;;;;;;15.42;50.95;98885.25;10372538;28;20232;-43
2022/12/23 21:07:07;;;;;;;3.13;1.70;;;;;;;17.66;47.58;98859.47;10364092;28;20279;-40
2022/12/23 21:12:09;;;;;;;4.43;2.20;;;;;;;16.58;49.61;98909.31;10369567;28;20315;-43
2022/12/23 21:17:10;;;;;;;5.33;2.00;;;;;;;16.46;49.46;98929.34;10364773;28;20245;-41
2022/12/23 21:22:12;;;;;;;5.47;2.13;;;;;;;16.37;49.32;98908.13;10361125;28;20237;-42
2022/12/23 21:27:14;;;;;;;5.43;2.50;;;;;;;15.57;50.28;98919.81;10360084;28;20240;-39
2022/12/23 21:32:15;;;;;;;3.83;2.20;;;;;;;16.15;50.29;98956.59;10363764;28;20229;-42
2022/12/23 21:37:17;;;;;;;4.93;2.33;;;;;;;16.49;48.89;98931.56;10360453;28;20780;-41
2022/12/23 21:42:19;;;;;;;5.83;2.60;;;;;;;15.57;50.17;98931.47;10363344;28;20237;-42
2022/12/23 21:47:21;;;;;;;5.00;2.20;;;;;;;15.92;50.24;98956.66;10360122;28;20229;-38
2022/12/23 21:52:22;;;;;;;4.93;2.57;;;;;;;16.62;48.61;98905.03;10368315;28;20707;-40
2022/12/23 21:57:24;;;;;;;6.97;3.00;;;;;;;16.18;48.79;98915.63;10361622;28;20244;-41
2022/12/23 22:02:26;;;;;;;6.87;2.40;;;;;;;15.02;51.39;98954.22;10369199;28;20229;-42
2022/12/23 22:07:28;;;;;;;7.67;2.80;;;;;;;16.70;48.70;98962.41;10357859;28;20236;-42
2022/12/23 22:12:29;;;;;;;4.80;2.60;;;;;;;15.13;50.22;98947.16;10370526;28;20233;-40
2022/12/23 22:17:31;;;;;;;8.00;2.47;;;;;;;16.01;49.10;98947.13;10352993;28;20230;-39
2022/12/23 22:22:33;;;;;;;5.40;2.43;;;;;;;15.83;49.10;98972.41;10359427;28;20240;-43
2022/12/23 22:27:34;;;;;;;6.57;2.80;;;;;;;16.22;49.20;99003.13;10356334;28;20619;-39
2022/12/23 22:32:36;;;;;;;6.90;3.07;;;;;;;15.49;51.32;98980.31;10363850;28;20861;-41
2022/12/23 22:37:43;;;;;;;7.17;2.43;;;;;;;17.03;47.96;98910.25;10358594;28;20733;-41
2022/12/23 22:42:44;;;;;;;7.00;2.60;;;;;;;15.68;50.29;98981.81;10364629;28;20410;-40
2022/12/23 22:47:46;;;;;;;11.20;3.10;;;;;;;15.20;50.00;98995.56;10360464;28;20232;-40
2022/12/23 22:52:48;;;;;;;7.63;2.90;;;;;;;14.08;51.76;98965.56;10359781;28;20240;-42
2022/12/23 22:57:49;;;;;;;8.43;2.57;;;;;;;16.86;47.77;98939.97;10362489;28;20237;-42
2022/12/23 23:02:51;;;;;;;5.67;2.27;;;;;;;15.19;50.10;99010.91;10356760;28;20264;-41
2022/12/23 23:07:53;;;;;;;8.33;2.80;;;;;;;15.35;49.67;99005.88;10362366;28;20295;-41
2022/12/23 23:12:55;;;;;;;4.53;2.30;;;;;;;16.24;48.53;98989.41;10362782;28;20229;-38
2022/12/23 23:17:56;;;;;;;7.43;2.90;;;;;;;14.80;50.30;99036.59;10359726;28;20233;-41
2022/12/23 23:22:58;;;;;;;7.67;2.80;;;;;;;14.87;49.75;99013.09;10361282;28;20248;-40
2022/12/23 23:28:00;;;;;;;8.90;3.00;;;;;;;16.39;48.19;99029.38;10361600;28;20271;-40
2022/12/23 23:33:01;;;;;;;5.53;2.70;;;;;;;16.28;47.86;99059.94;10360510;28;20243;-44
2022/12/23 23:38:03;;;;;;;7.07;2.60;;;;;;;16.62;47.16;99037.38;10360831;28;20354;-39
2022/12/23 23:43:05;;;;;;;6.87;3.17;;;;;;;17.62;45.71;99034.13;10358809;28;20241;-43
2022/12/23 23:48:08;;;;;;;7.67;2.70;;;;;;;17.43;45.86;99049.00;10362123;28;20235;-39
2022/12/23 23:53:13;;;;;;;8.30;2.57;;;;;;;15.82;47.78;99057.91;10356214;28;20284;-39
2022/12/23 23:58:14;;;;;;;8.83;2.70;;;;;;;16.76;46.80;99035.19;10361451;28;20233;-40
